createdAt,value
2023-03-05T00:00:18.715Z,1.50
2023-03-05T00:02:46.488Z,1.60
2023-03-05T00:05:16.825Z,1.50
2023-03-05T00:07:50.323Z,1.50
2023-03-05T00:10:23.292Z,1.40
2023-03-05T00:12:54.053Z,1.40
2023-03-05T00:15:21.907Z,1.60
2023-03-05T00:17:50.412Z,1.40
2023-03-05T00:20:23.778Z,1.40
2023-03-05T00:22:54.538Z,1.40
2023-03-05T00:25:25.024Z,1.40
2023-03-05T00:27:52.348Z,1.40
2023-03-05T00:30:22.387Z,1.40
2023-03-05T00:32:52.921Z,1.40
2023-03-05T00:35:20.350Z,1.40
2023-03-05T00:37:50.315Z,1.40
2023-03-05T00:40:18.673Z,1.30
2023-03-05T00:42:45.945Z,1.30
2023-03-05T00:45:14.343Z,1.30
2023-03-05T00:47:43.714Z,1.40
2023-03-05T00:50:11.227Z,1.30
2023-03-05T00:52:37.908Z,1.30
2023-03-05T00:55:05.524Z,1.30
2023-03-05T00:57:32.237Z,1.30
2023-03-05T00:59:58.941Z,1.30
2023-03-05T01:02:26.217Z,1.30
2023-03-05T01:04:54.083Z,1.30
2023-03-05T01:07:20.931Z,1.30
2023-03-05T01:09:47.726Z,1.30
2023-03-05T01:12:14.403Z,1.30
2023-03-05T01:14:42.763Z,1.30
2023-03-05T01:17:09.528Z,1.30
2023-03-05T01:19:36.258Z,1.30
2023-03-05T01:22:03.171Z,1.30
2023-03-05T01:24:31.591Z,1.30
2023-03-05T01:26:58.400Z,1.30
2023-03-05T01:29:25.168Z,1.30
2023-03-05T01:31:51.960Z,1.30
2023-03-05T01:34:18.610Z,1.30
2023-03-05T01:36:45.349Z,1.30
2023-03-05T01:39:12.824Z,1.30
2023-03-05T01:41:39.537Z,1.40
2023-03-05T01:44:06.275Z,1.30
2023-03-05T01:46:35.699Z,1.30
2023-03-05T01:49:10.432Z,1.30
2023-03-05T01:51:59.415Z,1.40
2023-03-05T01:54:32.468Z,1.40
2023-03-05T01:57:02.229Z,1.30
2023-03-05T01:59:29.121Z,1.40
2023-03-05T02:01:58.181Z,1.30
2023-03-05T02:04:31.243Z,1.30
2023-03-05T02:06:58.885Z,1.30
2023-03-05T02:09:28.668Z,1.30
2023-03-05T02:11:56.044Z,1.30
2023-03-05T02:14:24.398Z,1.30
2023-03-05T02:16:51.911Z,1.30
2023-03-05T02:19:18.757Z,1.30
2023-03-05T02:21:48.167Z,1.30
2023-03-05T02:24:18.211Z,1.30
2023-03-05T02:26:46.451Z,1.30
2023-03-05T02:29:20.615Z,1.30
2023-03-05T02:31:47.687Z,1.30
2023-03-05T02:34:15.148Z,1.30
2023-03-05T02:36:42.494Z,1.20
2023-03-05T02:39:09.936Z,1.30
2023-03-05T02:41:36.732Z,1.30
2023-03-05T02:44:03.549Z,1.30
2023-03-05T02:46:30.328Z,1.30
2023-03-05T02:48:57.141Z,1.30
2023-03-05T02:51:23.908Z,1.20
2023-03-05T02:53:50.948Z,1.20
2023-03-05T02:56:17.811Z,1.30
2023-03-05T02:58:44.607Z,1.20
2023-03-05T03:01:11.353Z,1.20
2023-03-05T03:03:38.850Z,1.20
2023-03-05T03:06:06.168Z,1.20
2023-03-05T03:08:32.997Z,1.20
2023-03-05T03:11:08.719Z,1.20
2023-03-05T03:13:35.755Z,1.30
2023-03-05T03:16:07.989Z,1.30
2023-03-05T03:18:34.977Z,1.30
2023-03-05T03:21:02.134Z,1.30
2023-03-05T03:23:29.086Z,1.20
2023-03-05T03:25:55.951Z,1.20
2023-03-05T03:28:22.641Z,1.20
2023-03-05T03:30:49.566Z,1.20
2023-03-05T03:33:18.115Z,1.30
2023-03-05T03:35:46.461Z,1.30
2023-03-05T03:38:13.916Z,1.20
2023-03-05T03:40:42.102Z,1.30
2023-03-05T03:43:09.101Z,1.30
2023-03-05T03:45:35.853Z,1.20
2023-03-05T03:48:02.653Z,1.30
2023-03-05T03:50:29.429Z,1.20
2023-03-05T03:52:56.094Z,1.30
2023-03-05T03:55:22.834Z,1.30
2023-03-05T03:57:49.470Z,1.30
2023-03-05T04:00:16.947Z,1.30
2023-03-05T04:02:43.720Z,1.30
2023-03-05T04:05:10.704Z,1.30
2023-03-05T04:07:37.365Z,1.30
2023-03-05T04:10:04.445Z,1.30
2023-03-05T04:12:31.131Z,1.30
2023-03-05T04:14:57.816Z,1.30
2023-03-05T04:17:24.588Z,1.30
2023-03-05T04:19:51.338Z,1.30
2023-03-05T04:22:18.633Z,1.20
2023-03-05T04:24:45.340Z,1.20
2023-03-05T04:27:12.501Z,1.30
2023-03-05T04:29:39.197Z,1.20
2023-03-05T04:32:06.368Z,1.30
2023-03-05T04:34:33.403Z,1.30
2023-03-05T04:37:00.305Z,1.30
2023-03-05T04:39:27.046Z,1.30
2023-03-05T04:41:53.885Z,1.20
2023-03-05T04:44:23.219Z,1.30
2023-03-05T04:46:50.069Z,1.30
2023-03-05T04:49:16.735Z,1.30
2023-03-05T04:51:43.514Z,1.30
2023-03-05T04:54:10.190Z,1.30
2023-03-05T04:56:36.931Z,1.30
2023-03-05T04:59:03.840Z,1.30
2023-03-05T05:01:30.667Z,1.30
2023-03-05T05:03:57.465Z,1.30
2023-03-05T05:06:24.087Z,1.30
2023-03-05T05:08:50.834Z,1.30
2023-03-05T05:11:18.126Z,1.30
2023-03-05T05:13:44.802Z,1.30
2023-03-05T05:16:11.585Z,1.30
2023-03-05T05:18:38.433Z,1.30
2023-03-05T05:21:10.310Z,1.30
2023-03-05T05:23:37.043Z,1.30
2023-03-05T05:26:05.628Z,1.30
2023-03-05T05:28:33.165Z,1.30
2023-03-05T05:30:59.941Z,1.30
2023-03-05T05:33:27.200Z,1.30
2023-03-05T05:35:53.926Z,1.30
2023-03-05T05:38:21.150Z,1.30
2023-03-05T05:40:47.821Z,1.20
2023-03-05T05:43:14.636Z,1.30
2023-03-05T05:45:41.533Z,1.20
2023-03-05T05:48:08.438Z,1.20
2023-03-05T05:50:35.186Z,1.20
2023-03-05T05:53:01.854Z,1.30
2023-03-05T05:55:28.510Z,1.20
2023-03-05T05:57:55.285Z,1.30
2023-03-05T06:00:22.419Z,1.20
2023-03-05T06:02:49.126Z,1.20
2023-03-05T06:05:15.946Z,1.20
2023-03-05T06:07:43.090Z,1.20
2023-03-05T06:10:10.812Z,1.20
2023-03-05T06:12:37.430Z,1.20
2023-03-05T06:15:04.500Z,1.20
2023-03-05T06:17:31.330Z,1.10
2023-03-05T06:19:58.962Z,1.10
2023-03-05T06:22:25.843Z,1.20
2023-03-05T06:24:52.941Z,1.20
2023-03-05T06:27:19.751Z,1.20
2023-03-05T06:29:46.530Z,1.20
2023-03-05T06:32:13.253Z,1.20
2023-03-05T06:34:39.961Z,1.20
2023-03-05T06:37:06.583Z,1.20
2023-03-05T06:39:33.642Z,1.20
2023-03-05T06:42:00.347Z,1.10
2023-03-05T06:44:27.085Z,1.20
2023-03-05T06:46:53.999Z,1.20
2023-03-05T06:49:21.152Z,1.30
2023-03-05T06:51:48.051Z,1.20
2023-03-05T06:54:17.302Z,1.20
2023-03-05T06:56:46.722Z,1.20
2023-03-05T06:59:15.645Z,1.20
2023-03-05T07:01:43.216Z,1.30
2023-03-05T07:04:12.066Z,1.20
2023-03-05T07:06:40.003Z,1.30
2023-03-05T07:09:07.878Z,1.30
2023-03-05T07:11:35.192Z,1.30
2023-03-05T07:14:02.482Z,1.30
2023-03-05T07:16:31.998Z,1.30
2023-03-05T07:19:00.589Z,1.30
2023-03-05T07:21:29.792Z,1.30
2023-03-05T07:23:58.078Z,1.30
2023-03-05T07:26:25.095Z,1.30
2023-03-05T07:28:51.922Z,1.40
2023-03-05T07:31:21.252Z,1.40
2023-03-05T07:33:50.434Z,1.40
2023-03-05T07:36:17.900Z,1.40
2023-03-05T07:38:44.905Z,1.40
2023-03-05T07:41:15.014Z,1.50
2023-03-05T07:43:41.715Z,1.50
2023-03-05T07:46:10.337Z,1.50
2023-03-05T07:48:37.597Z,1.50
2023-03-05T07:51:17.078Z,1.50
2023-03-05T07:53:44.745Z,1.60
2023-03-05T07:56:11.709Z,1.60
2023-03-05T07:58:38.968Z,1.60
2023-03-05T08:01:13.985Z,1.60
2023-03-05T08:03:41.916Z,1.60
2023-03-05T08:06:09.372Z,1.70
2023-03-05T08:08:36.241Z,1.70
2023-03-05T08:11:05.348Z,1.60
2023-03-05T08:13:32.429Z,1.70
2023-03-05T08:15:59.827Z,1.80
2023-03-05T08:18:26.508Z,1.80
2023-03-05T08:20:53.269Z,1.80
2023-03-05T08:23:20.102Z,1.80
2023-03-05T08:25:46.803Z,1.80
2023-03-05T08:28:13.633Z,1.90
2023-03-05T08:30:41.150Z,1.90
2023-03-05T08:33:07.941Z,1.90
2023-03-05T08:35:34.603Z,1.90
2023-03-05T08:38:01.261Z,2.00
2023-03-05T08:40:28.093Z,1.90
2023-03-05T08:42:54.856Z,2.00
2023-03-05T08:45:21.634Z,2.00
2023-03-05T08:47:48.472Z,2.00
2023-03-05T08:50:15.524Z,2.10
2023-03-05T08:52:42.188Z,2.10
2023-03-05T08:55:09.461Z,2.10
2023-03-05T08:57:36.169Z,2.10
2023-03-05T09:00:02.881Z,2.20
2023-03-05T09:02:30.110Z,2.20
2023-03-05T09:04:57.122Z,2.30
2023-03-05T09:07:23.991Z,2.30
2023-03-05T09:09:50.720Z,2.30
2023-03-05T09:12:17.698Z,2.30
2023-03-05T09:14:44.419Z,2.30
2023-03-05T09:17:11.308Z,2.40
2023-03-05T09:19:38.087Z,2.40
2023-03-05T09:22:04.980Z,2.50
2023-03-05T09:24:31.823Z,2.50
2023-03-05T09:27:00.314Z,2.50
2023-03-05T09:29:27.719Z,2.60
2023-03-05T09:31:55.076Z,2.60
2023-03-05T09:34:22.652Z,2.60
2023-03-05T09:36:49.439Z,2.70
2023-03-05T09:39:17.045Z,2.70
2023-03-05T09:42:09.868Z,2.70
2023-03-05T09:44:43.480Z,2.70
2023-03-05T09:47:30.856Z,2.80
2023-03-05T09:50:15.720Z,2.80
2023-03-05T09:53:01.270Z,2.80
2023-03-05T09:55:34.004Z,2.90
2023-03-05T09:58:27.846Z,2.90
2023-03-05T10:01:17.744Z,3.00
2023-03-05T10:04:02.002Z,3.00
2023-03-05T10:06:36.984Z,3.00
2023-03-05T10:09:09.804Z,3.00
2023-03-05T10:11:55.080Z,3.10
2023-03-05T10:14:30.274Z,3.10
2023-03-05T10:17:06.492Z,3.10
2023-03-05T10:19:36.240Z,3.00
2023-03-05T10:22:20.714Z,3.10
2023-03-05T10:24:59.419Z,3.10
2023-03-05T10:27:31.703Z,3.20
2023-03-05T10:30:04.941Z,3.20
2023-03-05T10:32:40.894Z,3.20
2023-03-05T10:35:33.737Z,3.20
2023-03-05T10:38:20.496Z,3.10
2023-03-05T10:40:57.163Z,3.20
2023-03-05T10:43:56.953Z,3.10
2023-03-05T10:46:34.854Z,3.20
2023-03-05T10:49:42.677Z,3.20
2023-03-05T10:52:18.642Z,3.20
2023-03-05T10:54:45.476Z,3.20
2023-03-05T10:57:25.942Z,3.20
2023-03-05T10:59:57.462Z,3.20
2023-03-05T11:02:24.494Z,3.20
2023-03-05T11:04:52.555Z,3.30
2023-03-05T11:07:19.246Z,3.30
2023-03-05T11:10:03.806Z,3.30
2023-03-05T11:12:36.862Z,3.40
2023-03-05T11:15:11.634Z,3.40
2023-03-05T11:18:03.082Z,3.30
2023-03-05T11:20:31.895Z,3.30
2023-03-05T11:23:18.293Z,3.30
2023-03-05T11:26:05.184Z,3.30
2023-03-05T11:28:34.223Z,3.30
2023-03-05T11:31:21.806Z,3.30
2023-03-05T11:34:08.439Z,3.40
2023-03-05T11:36:38.755Z,3.40
2023-03-05T11:39:10.181Z,3.40
2023-03-05T11:41:43.548Z,3.40
2023-03-05T11:44:21.420Z,3.50
2023-03-05T11:46:52.703Z,3.50
2023-03-05T11:49:24.251Z,3.50
2023-03-05T11:52:08.516Z,3.50
2023-03-05T11:54:54.161Z,3.50
2023-03-05T11:57:23.783Z,3.50
2023-03-05T11:59:52.534Z,3.40
2023-03-05T12:02:25.392Z,3.50
2023-03-05T12:04:52.400Z,3.50
2023-03-05T12:07:28.362Z,3.50
2023-03-05T12:09:55.692Z,3.50
2023-03-05T12:12:41.203Z,3.50
2023-03-05T12:15:29.198Z,3.50
2023-03-05T12:18:18.715Z,3.50
2023-03-05T12:20:58.479Z,3.50
2023-03-05T12:23:27.969Z,3.60
2023-03-05T12:25:57.765Z,3.50
2023-03-05T12:28:37.006Z,3.60
2023-03-05T12:31:26.882Z,3.50
2023-03-05T12:33:53.821Z,3.60
2023-03-05T12:36:23.742Z,3.60
2023-03-05T12:38:53.997Z,3.60
2023-03-05T12:41:24.941Z,3.60
2023-03-05T12:44:20.754Z,3.60
2023-03-05T12:47:23.560Z,3.60
2023-03-05T12:49:51.400Z,3.60
2023-03-05T12:52:31.549Z,3.60
2023-03-05T12:55:17.470Z,3.50
2023-03-05T12:57:46.435Z,3.60
2023-03-05T13:00:22.502Z,3.60
2023-03-05T13:03:01.120Z,3.60
2023-03-05T13:05:33.955Z,3.60
2023-03-05T13:08:19.887Z,3.60
2023-03-05T13:11:03.118Z,3.60
2023-03-05T13:13:44.228Z,3.60
2023-03-05T13:16:34.765Z,3.60
2023-03-05T13:19:05.304Z,3.60
2023-03-05T13:21:35.824Z,3.60
2023-03-05T13:24:04.927Z,3.60
2023-03-05T13:26:46.973Z,3.60
2023-03-05T13:29:16.884Z,3.60
2023-03-05T13:32:02.055Z,3.60
2023-03-05T13:34:47.195Z,3.60
2023-03-05T13:37:22.892Z,3.70
2023-03-05T13:39:57.703Z,3.70
2023-03-05T13:42:28.479Z,3.70
2023-03-05T13:44:57.844Z,3.70
2023-03-05T13:47:31.074Z,3.70
2023-03-05T13:50:02.448Z,3.70
2023-03-05T13:52:37.005Z,3.70
2023-03-05T13:55:17.046Z,3.70
2023-03-05T13:57:51.430Z,3.70
2023-03-05T14:00:38.042Z,3.70
2023-03-05T14:03:28.004Z,3.70
2023-03-05T14:05:55.074Z,3.70
2023-03-05T14:08:24.387Z,3.70
2023-03-05T14:10:53.766Z,3.80
2023-03-05T14:13:29.900Z,3.80
2023-03-05T14:16:12.272Z,3.80
2023-03-05T14:18:52.831Z,3.80
2023-03-05T14:21:22.357Z,3.90
2023-03-05T14:23:53.461Z,3.90
2023-03-05T14:26:30.445Z,3.80
2023-03-05T14:29:11.047Z,3.80
2023-03-05T14:31:52.253Z,3.80
2023-03-05T14:34:37.206Z,3.90
2023-03-05T14:37:07.935Z,3.80
2023-03-05T14:40:00.262Z,3.80
2023-03-05T14:42:33.226Z,3.80
2023-03-05T14:45:22.423Z,3.80
2023-03-05T14:47:54.889Z,3.90
2023-03-05T14:50:26.509Z,3.90
2023-03-05T14:52:57.303Z,3.90
2023-03-05T14:55:28.486Z,3.80
2023-03-05T14:58:07.574Z,3.90
2023-03-05T15:00:34.785Z,4.00
2023-03-05T15:03:01.842Z,3.80
2023-03-05T15:05:31.267Z,3.80
2023-03-05T15:07:58.874Z,3.80
2023-03-05T15:10:26.437Z,3.80
2023-03-05T15:12:53.826Z,3.80
2023-03-05T15:15:21.991Z,3.80
2023-03-05T15:17:55.129Z,3.80
2023-03-05T15:20:29.190Z,3.80
2023-03-05T15:22:56.389Z,3.90
2023-03-05T15:25:26.860Z,3.80
2023-03-05T15:27:53.831Z,3.80
2023-03-05T15:30:24.218Z,3.80
2023-03-05T15:32:52.817Z,3.80
2023-03-05T15:35:20.839Z,3.80
2023-03-05T15:37:50.798Z,3.70
2023-03-05T15:40:21.532Z,3.70
2023-03-05T15:42:53.114Z,3.70
2023-03-05T15:45:22.100Z,3.70
2023-03-05T15:47:50.568Z,3.70
2023-03-05T15:50:18.303Z,3.70
2023-03-05T15:52:45.771Z,3.60
2023-03-05T15:55:13.320Z,3.70
2023-03-05T15:57:45.720Z,3.70
2023-03-05T16:00:14.426Z,3.60
2023-03-05T16:02:41.964Z,3.70
2023-03-05T16:05:09.955Z,3.70
2023-03-05T16:07:40.336Z,3.70
2023-03-05T16:10:10.578Z,3.70
2023-03-05T16:12:41.050Z,3.60
2023-03-05T16:15:13.909Z,3.60
2023-03-05T16:17:44.023Z,3.60
2023-03-05T16:20:12.512Z,3.60
2023-03-05T16:22:39.292Z,3.60
2023-03-05T16:25:07.061Z,3.60
2023-03-05T16:27:34.009Z,3.60
2023-03-05T16:30:00.961Z,3.50
2023-03-05T16:32:27.939Z,3.50
2023-03-05T16:34:55.332Z,3.50
2023-03-05T16:37:24.472Z,3.50
2023-03-05T16:39:51.588Z,3.40
2023-03-05T16:42:18.312Z,3.40
2023-03-05T16:44:48.403Z,3.50
2023-03-05T16:47:15.716Z,3.40
2023-03-05T16:49:42.465Z,3.40
2023-03-05T16:52:18.855Z,3.50
2023-03-05T16:54:46.890Z,3.20
2023-03-05T16:57:14.372Z,3.40
2023-03-05T16:59:41.612Z,3.40
2023-03-05T17:02:17.654Z,3.40
2023-03-05T17:04:48.824Z,3.40
2023-03-05T17:07:16.380Z,3.40
2023-03-05T17:09:44.637Z,3.40
2023-03-05T17:12:25.813Z,3.40
2023-03-05T17:14:52.827Z,3.40
2023-03-05T17:17:20.132Z,3.40
2023-03-05T17:19:48.092Z,3.40
2023-03-05T17:22:16.277Z,3.40
2023-03-05T17:24:43.144Z,3.40
2023-03-05T17:27:10.420Z,3.40
2023-03-05T17:29:37.312Z,3.30
2023-03-05T17:32:04.550Z,3.40
2023-03-05T17:34:36.599Z,3.40
2023-03-05T17:37:05.517Z,3.30
2023-03-05T17:39:32.648Z,3.30
2023-03-05T17:41:59.916Z,3.30
2023-03-05T17:44:26.749Z,3.30
2023-03-05T17:46:56.561Z,3.30
2023-03-05T17:49:23.405Z,3.30
2023-03-05T17:51:50.183Z,3.30
2023-03-05T17:54:22.901Z,3.30
2023-03-05T17:56:54.156Z,3.30
2023-03-05T17:59:21.124Z,3.20
2023-03-05T18:01:48.065Z,3.20
2023-03-05T18:04:33.551Z,3.20
2023-03-05T18:07:01.999Z,3.10
2023-03-05T18:09:31.742Z,3.10
2023-03-05T18:11:59.213Z,3.10
2023-03-05T18:14:27.536Z,3.10
2023-03-05T18:16:54.809Z,3.00
2023-03-05T18:19:21.783Z,3.00
2023-03-05T18:21:53.010Z,3.00
2023-03-05T18:24:19.930Z,3.10
2023-03-05T18:26:50.020Z,3.00
2023-03-05T18:29:18.692Z,3.00
2023-03-05T18:31:45.878Z,3.00
2023-03-05T18:34:12.589Z,3.00
2023-03-05T18:36:39.509Z,2.90
2023-03-05T18:39:06.613Z,2.90
2023-03-05T18:41:33.758Z,2.90
2023-03-05T18:44:15.961Z,2.90
2023-03-05T18:47:34.611Z,2.90
2023-03-05T18:50:12.055Z,2.90
2023-03-05T18:52:49.274Z,2.80
2023-03-05T18:58:48.877Z,2.80
2023-03-05T19:01:26.697Z,2.90
2023-03-05T19:04:06.112Z,2.90
2023-03-05T19:06:48.990Z,2.80
2023-03-05T19:09:59.611Z,2.80
2023-03-05T19:12:43.628Z,2.80
2023-03-05T19:15:13.661Z,2.70
2023-03-05T19:17:43.532Z,2.70
2023-03-05T19:20:20.893Z,2.70
2023-03-05T19:26:30.380Z,2.60
2023-03-05T19:29:41.964Z,2.60
2023-03-05T19:32:25.622Z,2.60
2023-03-05T19:35:04.229Z,2.70
2023-03-05T19:37:37.773Z,2.60
2023-03-05T19:40:10.515Z,2.60
2023-03-05T19:42:47.423Z,2.60
2023-03-05T19:45:20.881Z,2.60
2023-03-05T19:47:49.754Z,2.50
2023-03-05T19:50:18.587Z,2.50
2023-03-05T19:53:02.901Z,2.60
2023-03-05T19:55:34.574Z,2.50
2023-03-05T19:58:11.774Z,2.60
2023-03-05T20:01:17.408Z,2.50
2023-03-05T20:03:48.941Z,2.50
2023-03-05T20:06:21.240Z,2.50
2023-03-05T20:11:39.926Z,2.40
2023-03-05T20:14:13.227Z,2.50
2023-03-05T20:16:40.716Z,2.40
2023-03-05T20:19:19.814Z,2.40
2023-03-05T20:21:49.345Z,2.30
2023-03-05T20:24:38.413Z,2.30
2023-03-05T20:27:44.411Z,2.30
2023-03-05T20:33:10.731Z,2.20
2023-03-05T20:35:47.380Z,2.10
2023-03-05T20:38:25.888Z,2.10
2023-03-05T20:41:11.457Z,2.00
2023-03-05T20:43:47.907Z,2.10
2023-03-05T20:46:35.964Z,2.10
2023-03-05T20:49:22.038Z,2.20
2023-03-05T20:52:06.651Z,2.20
2023-03-05T20:54:49.013Z,2.20
2023-03-05T20:57:27.405Z,2.20
2023-03-05T21:00:02.082Z,2.20
2023-03-05T21:02:28.882Z,2.30
2023-03-05T21:05:29.127Z,2.30
2023-03-05T21:08:10.082Z,2.30
2023-03-05T21:11:02.034Z,2.30
2023-03-05T21:13:44.351Z,2.20
2023-03-05T21:16:19.444Z,2.20
2023-03-05T21:18:46.735Z,2.20
2023-03-05T21:21:14.019Z,2.30
2023-03-05T21:23:42.403Z,2.30
2023-03-05T21:26:09.483Z,2.30
2023-03-05T21:28:39.570Z,2.30
2023-03-05T21:31:09.700Z,2.20
2023-03-05T21:33:38.508Z,2.20
2023-03-05T21:36:06.246Z,2.20
2023-03-05T21:38:43.047Z,2.10
2023-03-05T21:41:33.459Z,2.10
2023-03-05T21:44:19.715Z,2.10
2023-03-05T21:47:10.117Z,2.10
2023-03-05T21:49:46.263Z,2.10
2023-03-05T21:52:14.644Z,2.10
2023-03-05T21:54:50.535Z,2.10
2023-03-05T21:57:20.267Z,2.10
2023-03-05T21:59:53.564Z,2.10
2023-03-05T22:02:30.393Z,2.10
2023-03-05T22:05:34.248Z,2.00
2023-03-05T22:08:14.588Z,2.00
2023-03-05T22:10:57.918Z,2.10
2023-03-05T22:13:48.053Z,2.00
2023-03-05T22:16:33.194Z,2.00
2023-03-05T22:19:04.309Z,2.00
2023-03-05T22:21:44.697Z,2.00
2023-03-05T22:24:18.924Z,2.00
2023-03-05T22:27:00.866Z,2.00
2023-03-05T22:29:32.093Z,2.00
2023-03-05T22:32:42.927Z,1.90
2023-03-05T22:35:17.695Z,2.00
2023-03-05T22:38:19.479Z,1.90
2023-03-05T22:40:54.887Z,1.90
2023-03-05T22:43:32.399Z,1.90
2023-03-05T22:46:03.261Z,1.80
2023-03-05T22:51:28.131Z,1.80
2023-03-05T22:54:09.458Z,1.80
2023-03-05T22:56:46.363Z,1.90
2023-03-05T22:59:24.992Z,1.80
2023-03-05T23:05:04.493Z,1.80
2023-03-05T23:07:37.163Z,1.80
2023-03-05T23:10:07.221Z,1.70
2023-03-05T23:12:44.584Z,1.70
2023-03-05T23:15:20.075Z,1.60
2023-03-05T23:17:55.937Z,1.70
2023-03-05T23:20:29.627Z,1.70
2023-03-05T23:23:02.398Z,1.70
2023-03-05T23:25:41.984Z,1.80
2023-03-05T23:28:13.671Z,1.80
2023-03-05T23:30:54.410Z,1.80
2023-03-05T23:33:29.502Z,1.70
2023-03-05T23:36:05.409Z,1.70
2023-03-05T23:38:35.657Z,1.70
2023-03-05T23:41:13.631Z,1.70
2023-03-05T23:47:30.957Z,1.70
2023-03-05T23:50:01.238Z,1.70
2023-03-05T23:52:32.903Z,1.60
2023-03-05T23:55:06.774Z,1.70
2023-03-05T23:57:40.340Z,1.60
